createdAt,value
2023-01-13T00:01:22.322Z,2.67
2023-01-13T00:03:50.234Z,2.85
2023-01-13T00:06:23.150Z,5.00
2023-01-13T00:08:51.847Z,2.75
2023-01-13T00:11:20.199Z,4.53
2023-01-13T00:13:50.870Z,3.88
2023-01-13T00:16:19.389Z,4.18
2023-01-13T00:18:48.183Z,2.92
2023-01-13T00:21:24.254Z,4.78
2023-01-13T00:23:55.407Z,3.22
2023-01-13T00:26:31.036Z,4.40
2023-01-13T00:28:59.360Z,3.92
2023-01-13T00:31:28.419Z,4.97
2023-01-13T00:34:00.171Z,2.97
2023-01-13T00:36:28.316Z,2.20
2023-01-13T00:38:55.464Z,3.28
2023-01-13T00:41:24.955Z,4.38
2023-01-13T00:43:51.908Z,4.85
2023-01-13T00:46:21.335Z,2.95
2023-01-13T00:48:48.751Z,4.25
2023-01-13T00:51:20.947Z,5.18
2023-01-13T00:53:50.644Z,5.60
2023-01-13T00:56:39.206Z,5.32
2023-01-13T00:59:08.080Z,3.58
2023-01-13T01:01:36.052Z,4.78
2023-01-13T01:04:03.564Z,5.00
2023-01-13T01:06:36.282Z,5.95
2023-01-13T01:09:04.735Z,2.85
2023-01-13T01:11:33.185Z,5.47
2023-01-13T01:14:03.797Z,5.68
2023-01-13T01:16:32.892Z,6.05
2023-01-13T01:19:03.359Z,5.07
2023-01-13T01:21:31.570Z,8.65
2023-01-13T01:24:01.343Z,5.88
2023-01-13T01:26:31.153Z,4.97
2023-01-13T01:28:59.079Z,5.25
2023-01-13T01:31:31.907Z,7.20
2023-01-13T01:34:00.296Z,6.93
2023-01-13T01:36:31.251Z,6.05
2023-01-13T01:38:59.368Z,7.10
2023-01-13T01:41:30.065Z,6.68
2023-01-13T01:44:51.880Z,6.55
2023-01-13T01:47:22.398Z,7.55
2023-01-13T01:49:50.117Z,7.47
2023-01-13T01:52:39.026Z,6.63
2023-01-13T01:55:16.490Z,6.25
2023-01-13T01:57:55.264Z,7.60
2023-01-13T02:00:22.758Z,3.78
2023-01-13T02:02:53.247Z,6.63
2023-01-13T02:05:21.087Z,6.78
2023-01-13T02:07:51.695Z,7.30
2023-01-13T02:10:22.697Z,6.97
2023-01-13T02:12:51.575Z,6.13
2023-01-13T02:15:27.484Z,5.32
2023-01-13T02:18:09.855Z,3.70
2023-01-13T02:20:54.350Z,6.47
2023-01-13T02:23:40.169Z,6.20
2023-01-13T02:26:26.335Z,6.95
2023-01-13T02:29:27.866Z,7.65
2023-01-13T02:32:02.836Z,6.13
2023-01-13T02:34:48.605Z,6.70
2023-01-13T02:37:28.953Z,4.68
2023-01-13T02:40:25.224Z,8.70
2023-01-13T02:43:28.166Z,5.22
2023-01-13T02:46:05.253Z,6.28
2023-01-13T02:48:34.261Z,7.25
2023-01-13T02:51:08.308Z,7.68
2023-01-13T02:53:53.687Z,6.97
2023-01-13T02:56:24.304Z,5.90
2023-01-13T02:58:54.848Z,5.78
2023-01-13T03:01:23.321Z,4.60
2023-01-13T03:03:50.795Z,6.13
2023-01-13T03:06:51.805Z,7.28
2023-01-13T03:09:45.657Z,5.88
2023-01-13T03:12:24.717Z,4.78
2023-01-13T03:15:22.084Z,7.05
2023-01-13T03:18:02.805Z,7.25
2023-01-13T03:20:37.560Z,6.05
2023-01-13T03:26:32.993Z,5.70
2023-01-13T03:29:07.792Z,7.22
2023-01-13T03:31:50.455Z,5.68
2023-01-13T03:36:51.857Z,7.30
2023-01-13T03:39:27.185Z,6.63
2023-01-13T03:42:07.789Z,7.28
2023-01-13T03:44:47.827Z,6.68
2023-01-13T03:47:34.818Z,5.63
2023-01-13T03:50:14.671Z,5.45
2023-01-13T03:52:47.479Z,7.55
2023-01-13T03:55:19.100Z,8.25
2023-01-13T03:57:52.318Z,8.18
2023-01-13T04:00:26.512Z,5.53
2023-01-13T04:03:08.292Z,6.47
2023-01-13T04:05:41.444Z,7.40
2023-01-13T04:08:14.480Z,4.25
2023-01-13T04:10:53.044Z,7.05
2023-01-13T04:13:24.449Z,6.13
2023-01-13T04:15:52.228Z,6.95
2023-01-13T04:18:28.916Z,6.32
2023-01-13T04:21:01.443Z,5.88
2023-01-13T04:23:29.121Z,6.50
2023-01-13T04:25:56.992Z,4.50
2023-01-13T04:28:24.985Z,4.47
2023-01-13T04:30:52.751Z,7.35
2023-01-13T04:33:21.203Z,4.60
2023-01-13T04:35:51.269Z,2.92
2023-01-13T04:40:48.833Z,2.92
2023-01-13T04:43:16.851Z,4.80
2023-01-13T04:45:44.882Z,4.85
2023-01-13T04:48:12.266Z,4.05
2023-01-13T04:50:39.958Z,7.18
2023-01-13T04:53:07.260Z,5.85
2023-01-13T04:55:35.439Z,4.15
2023-01-13T04:58:11.772Z,2.97
2023-01-13T05:00:40.549Z,4.70
2023-01-13T05:03:08.282Z,1.63
2023-01-13T05:05:35.820Z,3.75
2023-01-13T05:08:03.367Z,5.95
2023-01-13T05:10:31.094Z,5.43
2023-01-13T05:16:22.806Z,4.32
2023-01-13T05:18:54.624Z,4.28
2023-01-13T05:21:40.978Z,2.85
2023-01-13T05:24:28.382Z,4.05
2023-01-13T05:26:56.294Z,4.70
2023-01-13T05:29:23.290Z,3.42
2023-01-13T05:31:50.738Z,3.50
2023-01-13T05:34:17.933Z,4.22
2023-01-13T05:36:46.131Z,7.53
2023-01-13T05:39:13.791Z,6.18
2023-01-13T05:42:00.809Z,5.15
2023-01-13T05:44:28.131Z,3.72
2023-01-13T05:46:56.959Z,4.18
2023-01-13T05:49:25.001Z,2.70
2023-01-13T05:51:54.769Z,3.00
2023-01-13T05:54:22.063Z,5.85
2023-01-13T05:56:49.407Z,4.78
2023-01-13T05:59:16.528Z,9.02
2023-01-13T06:01:48.233Z,4.78
2023-01-13T06:04:15.448Z,7.03
2023-01-13T06:06:45.805Z,5.43
2023-01-13T06:09:15.662Z,4.70
2023-01-13T06:11:46.979Z,3.63
2023-01-13T06:14:15.344Z,5.15
2023-01-13T06:16:42.675Z,4.03
2023-01-13T06:19:13.086Z,4.75
2023-01-13T06:21:41.209Z,5.97
2023-01-13T06:24:11.073Z,4.93
2023-01-13T06:26:40.295Z,4.03
2023-01-13T06:29:09.333Z,3.63
2023-01-13T06:31:39.946Z,6.25
2023-01-13T06:34:12.988Z,3.80
2023-01-13T06:36:52.810Z,4.72
2023-01-13T06:44:57.543Z,4.13
2023-01-13T06:47:26.144Z,5.07
2023-01-13T06:49:53.735Z,6.75
2023-01-13T06:52:21.714Z,4.90
2023-01-13T06:54:48.942Z,10.48
2023-01-13T06:57:16.398Z,5.55
2023-01-13T06:59:46.085Z,6.85
2023-01-13T07:02:14.659Z,7.78
2023-01-13T07:04:45.008Z,9.43
2023-01-13T07:09:54.917Z,6.93
2023-01-13T07:12:22.524Z,6.85
2023-01-13T07:15:15.246Z,5.45
2023-01-13T07:17:51.917Z,7.38
2023-01-13T07:20:19.652Z,6.35
2023-01-13T07:22:47.391Z,6.55
2023-01-13T07:25:14.433Z,6.45
2023-01-13T07:27:45.062Z,6.15
2023-01-13T07:30:12.696Z,3.42
2023-01-13T07:32:40.327Z,8.50
2023-01-13T07:35:10.033Z,5.28
2023-01-13T07:37:40.233Z,5.95
2023-01-13T07:42:59.497Z,6.18
2023-01-13T07:45:29.605Z,10.63
2023-01-13T07:48:00.433Z,9.00
2023-01-13T07:50:27.742Z,8.63
2023-01-13T07:53:00.969Z,10.30
2023-01-13T07:55:32.937Z,5.85
2023-01-13T07:58:02.129Z,8.80
2023-01-13T08:00:29.387Z,7.80
2023-01-13T08:02:56.763Z,6.25
2023-01-13T08:05:23.852Z,8.98
2023-01-13T08:07:51.324Z,5.30
2023-01-13T08:10:18.803Z,4.95
2023-01-13T08:13:05.328Z,8.57
2023-01-13T08:18:23.329Z,6.65
2023-01-13T08:20:52.719Z,6.07
2023-01-13T08:23:24.145Z,5.63
2023-01-13T08:25:51.205Z,6.10
2023-01-13T08:28:18.580Z,7.13
2023-01-13T08:30:45.966Z,7.95
2023-01-13T08:33:14.580Z,7.38
2023-01-13T08:36:09.695Z,3.47
2023-01-13T08:38:40.456Z,5.10
2023-01-13T08:41:37.751Z,6.60
2023-01-13T08:44:06.656Z,7.57
2023-01-13T08:46:33.813Z,7.13
2023-01-13T08:49:01.427Z,7.78
2023-01-13T08:51:28.589Z,8.27
2023-01-13T08:53:55.910Z,6.03
2023-01-13T08:56:24.780Z,6.50
2023-01-13T08:58:52.220Z,6.15
2023-01-13T09:01:23.297Z,5.85
2023-01-13T09:03:51.091Z,6.13
2023-01-13T09:06:18.202Z,6.85
2023-01-13T09:08:46.420Z,5.00
2023-01-13T09:11:48.295Z,5.55
2023-01-13T09:16:48.572Z,6.65
2023-01-13T09:19:17.188Z,6.80
2023-01-13T09:21:44.182Z,5.28
2023-01-13T09:24:12.227Z,7.93
2023-01-13T09:26:42.834Z,9.77
2023-01-13T09:29:10.701Z,10.10
2023-01-13T09:31:37.841Z,6.90
2023-01-13T09:34:25.962Z,5.93
2023-01-13T09:36:53.133Z,8.30
2023-01-13T09:39:26.188Z,5.38
2023-01-13T09:42:20.588Z,6.57
2023-01-13T09:44:55.877Z,8.48
2023-01-13T09:47:32.905Z,7.38
2023-01-13T09:50:21.559Z,7.55
2023-01-13T09:52:52.815Z,6.65
2023-01-13T09:55:31.168Z,7.95
2023-01-13T09:57:58.623Z,7.95
2023-01-13T10:00:34.652Z,8.20
2023-01-13T10:03:25.086Z,8.93
2023-01-13T10:06:18.421Z,7.78
2023-01-13T10:08:48.156Z,8.13
2023-01-13T10:11:57.000Z,6.10
2023-01-13T10:14:38.299Z,4.57
2023-01-13T10:17:36.720Z,7.68
2023-01-13T10:20:24.990Z,8.00
2023-01-13T10:23:02.084Z,6.93
2023-01-13T10:25:44.314Z,5.53
2023-01-13T10:28:14.708Z,5.53
2023-01-13T10:30:44.490Z,10.00
2023-01-13T10:33:21.384Z,10.75
2023-01-13T10:35:51.674Z,9.38
2023-01-13T10:38:48.306Z,8.93
2023-01-13T10:41:15.769Z,8.57
2023-01-13T10:43:57.356Z,8.32
2023-01-13T10:46:24.524Z,8.73
2023-01-13T10:48:57.528Z,9.93
2023-01-13T10:51:43.949Z,7.60
2023-01-13T10:54:11.713Z,10.48
2023-01-13T10:56:45.577Z,8.82
2023-01-13T10:59:30.206Z,10.98
2023-01-13T11:02:13.041Z,6.80
2023-01-13T11:04:53.570Z,8.93
2023-01-13T11:07:36.656Z,8.75
2023-01-13T11:10:27.823Z,6.97
2023-01-13T11:13:18.789Z,8.20
2023-01-13T11:16:14.386Z,9.25
2023-01-13T11:19:02.437Z,7.50
2023-01-13T11:21:52.516Z,11.80
2023-01-13T11:24:38.076Z,7.68
2023-01-13T11:27:21.217Z,9.45
2023-01-13T11:29:59.262Z,6.22
2023-01-13T11:32:31.125Z,6.40
2023-01-13T11:35:03.338Z,9.48
2023-01-13T11:37:36.657Z,10.85
2023-01-13T11:40:40.941Z,7.97
2023-01-13T11:43:48.171Z,5.93
2023-01-13T11:46:19.043Z,7.63
2023-01-13T11:48:55.474Z,9.90
2023-01-13T11:51:34.732Z,6.32
2023-01-13T11:55:07.855Z,9.77
2023-01-13T12:00:56.228Z,9.90
2023-01-13T12:03:36.455Z,6.28
2023-01-13T12:06:22.891Z,8.43
2023-01-13T12:09:22.866Z,7.78
2023-01-13T12:12:14.810Z,8.32
2023-01-13T12:15:00.385Z,7.00
2023-01-13T12:17:57.561Z,6.60
2023-01-13T12:20:54.124Z,10.77
2023-01-13T12:24:02.319Z,10.82
2023-01-13T12:26:35.867Z,8.15
2023-01-13T12:29:07.617Z,7.75
2023-01-13T12:31:39.228Z,9.93
2023-01-13T12:34:27.091Z,8.82
2023-01-13T12:36:58.766Z,6.82
2023-01-13T12:39:42.464Z,8.23
2023-01-13T12:42:53.215Z,11.40
2023-01-13T12:45:31.327Z,12.75
2023-01-13T12:48:00.770Z,6.97
2023-01-13T12:50:29.536Z,9.52
2023-01-13T12:52:59.042Z,11.25
2023-01-13T12:55:32.018Z,8.98
2023-01-13T12:58:02.634Z,9.55
2023-01-13T13:00:38.228Z,10.60
2023-01-13T13:03:12.237Z,11.82
2023-01-13T13:06:23.356Z,9.60
2023-01-13T13:09:16.253Z,10.07
2023-01-13T13:11:59.818Z,8.18
2023-01-13T13:14:39.267Z,8.95
2023-01-13T13:17:34.359Z,7.63
2023-01-13T13:20:58.830Z,8.52
2023-01-13T13:23:39.693Z,8.50
2023-01-13T13:26:37.970Z,8.77
2023-01-13T13:29:28.738Z,9.07
2023-01-13T13:32:22.064Z,4.70
2023-01-13T13:34:58.461Z,5.45
2023-01-13T13:38:09.645Z,4.60
2023-01-13T13:41:03.491Z,7.13
2023-01-13T13:43:59.171Z,7.43
2023-01-13T13:46:47.435Z,7.53
2023-01-13T13:49:14.801Z,9.10
2023-01-13T13:52:07.482Z,9.38
2023-01-13T13:54:35.664Z,8.75
2023-01-13T13:57:02.758Z,10.73
2023-01-13T13:59:30.969Z,8.13
2023-01-13T14:02:01.841Z,7.30
2023-01-13T14:04:40.808Z,10.68
2023-01-13T14:07:21.957Z,10.07
2023-01-13T14:09:54.439Z,8.73
2023-01-13T14:12:24.139Z,10.10
2023-01-13T14:14:52.366Z,10.00
2023-01-13T14:17:25.580Z,9.65
2023-01-13T14:20:09.650Z,6.57
2023-01-13T14:22:36.743Z,9.32
2023-01-13T14:28:23.923Z,9.70
2023-01-13T14:30:54.097Z,10.15
2023-01-13T14:36:43.321Z,10.52
2023-01-13T14:39:14.959Z,9.68
2023-01-13T14:41:42.541Z,8.90
2023-01-13T14:44:21.341Z,10.60
2023-01-13T14:46:49.244Z,9.35
2023-01-13T14:49:55.300Z,5.70
2023-01-13T14:52:33.719Z,9.45
2023-01-13T14:55:10.317Z,10.27
2023-01-13T14:57:41.445Z,6.13
2023-01-13T15:00:14.536Z,5.68
2023-01-13T15:02:58.326Z,10.45
2023-01-13T15:05:25.632Z,10.85
2023-01-13T15:08:05.427Z,12.20
2023-01-13T15:10:38.639Z,9.07
2023-01-13T15:13:19.169Z,9.95
2023-01-13T15:15:51.102Z,11.13
2023-01-13T15:18:18.557Z,10.20
2023-01-13T15:20:46.141Z,10.48
2023-01-13T15:23:14.589Z,10.43
2023-01-13T15:25:43.078Z,9.35
2023-01-13T15:28:27.663Z,9.18
2023-01-13T15:31:00.768Z,11.10
2023-01-13T15:33:28.152Z,11.02
2023-01-13T15:35:55.531Z,9.93
2023-01-13T15:38:25.095Z,12.68
2023-01-13T15:40:53.021Z,14.52
2023-01-13T15:43:41.017Z,10.52
2023-01-13T15:46:38.255Z,15.13
2023-01-13T15:49:15.969Z,9.43
2023-01-13T15:51:45.052Z,10.88
2023-01-13T15:54:12.785Z,11.02
2023-01-13T15:56:42.126Z,10.48
2023-01-13T16:01:44.611Z,9.13
2023-01-13T16:04:12.117Z,8.85
2023-01-13T16:06:39.364Z,11.25
2023-01-13T16:09:06.976Z,9.60
2023-01-13T16:11:33.923Z,11.38
2023-01-13T16:14:01.620Z,11.88
2023-01-13T16:16:29.939Z,11.82
2023-01-13T16:18:57.503Z,9.38
2023-01-13T16:21:25.074Z,11.63
2023-01-13T16:23:52.446Z,12.77
2023-01-13T16:26:21.840Z,11.45
2023-01-13T16:28:50.849Z,10.27
2023-01-13T16:31:32.626Z,11.35
2023-01-13T16:34:35.158Z,9.80
2023-01-13T16:37:02.373Z,11.90
2023-01-13T16:39:31.097Z,13.70
2023-01-13T16:41:58.193Z,13.77
2023-01-13T16:44:25.632Z,12.13
2023-01-13T16:46:52.644Z,12.00
2023-01-13T16:49:19.995Z,11.30
2023-01-13T16:51:47.084Z,8.15
2023-01-13T16:54:14.567Z,9.77
2023-01-13T16:56:45.456Z,10.15
2023-01-13T16:59:16.624Z,10.40
2023-01-13T17:01:45.141Z,11.40
2023-01-13T17:04:16.378Z,11.80
2023-01-13T17:06:49.174Z,9.80
2023-01-13T17:09:24.650Z,10.63
2023-01-13T17:11:52.218Z,16.55
2023-01-13T17:14:25.790Z,9.68
2023-01-13T17:16:58.440Z,11.30
2023-01-13T17:19:26.502Z,8.95
2023-01-13T17:21:53.642Z,10.07
2023-01-13T17:24:21.329Z,11.38
2023-01-13T17:26:50.656Z,9.55
2023-01-13T17:29:23.256Z,9.98
2023-01-13T17:31:52.297Z,12.20
2023-01-13T17:34:21.290Z,10.80
2023-01-13T17:36:54.866Z,10.80
2023-01-13T17:39:25.035Z,9.63
2023-01-13T17:44:25.163Z,8.70
2023-01-13T17:46:52.297Z,9.27
2023-01-13T17:49:28.491Z,8.80
2023-01-13T17:51:55.748Z,8.20
2023-01-13T17:54:24.247Z,8.80
2023-01-13T17:57:40.311Z,9.57
2023-01-13T18:00:32.118Z,7.07
2023-01-13T18:02:59.185Z,9.10
2023-01-13T18:05:26.596Z,6.70
2023-01-13T18:07:53.607Z,8.50
2023-01-13T18:10:21.356Z,8.35
2023-01-13T18:12:50.353Z,3.58
2023-01-13T18:15:17.680Z,7.18
2023-01-13T18:17:46.287Z,8.48
2023-01-13T18:20:40.487Z,7.95
2023-01-13T18:23:36.022Z,8.05
2023-01-13T18:26:33.914Z,7.05
2023-01-13T18:29:02.309Z,7.57
2023-01-13T18:31:30.207Z,8.60
2023-01-13T18:34:33.824Z,6.95
2023-01-13T18:37:07.121Z,4.53
2023-01-13T18:39:37.342Z,6.57
2023-01-13T18:42:25.866Z,5.25
2023-01-13T18:44:53.470Z,8.77
2023-01-13T18:47:24.733Z,8.48
2023-01-13T18:49:52.628Z,8.18
2023-01-13T18:52:21.375Z,6.78
2023-01-13T18:54:48.829Z,7.97
2023-01-13T18:57:16.961Z,7.32
2023-01-13T18:59:43.998Z,7.10
2023-01-13T19:02:22.823Z,8.43
2023-01-13T19:04:50.553Z,8.10
2023-01-13T19:07:23.876Z,7.40
2023-01-13T19:09:57.047Z,7.60
2023-01-13T19:12:26.463Z,8.20
2023-01-13T19:14:58.397Z,5.03
2023-01-13T19:17:32.953Z,4.60
2023-01-13T19:20:00.123Z,5.78
2023-01-13T19:22:31.072Z,6.22
2023-01-13T19:24:59.493Z,5.35
2023-01-13T19:27:28.796Z,7.28
2023-01-13T19:30:02.276Z,8.38
2023-01-13T19:32:33.031Z,5.95
2023-01-13T19:35:03.678Z,9.60
2023-01-13T19:37:33.749Z,4.53
2023-01-13T19:42:46.646Z,8.75
2023-01-13T19:45:27.760Z,9.07
2023-01-13T19:47:57.317Z,7.63
2023-01-13T19:50:25.897Z,10.88
2023-01-13T19:55:35.825Z,5.72
2023-01-13T19:58:07.134Z,5.97
2023-01-13T20:00:35.041Z,7.35
2023-01-13T20:03:10.872Z,9.45
2023-01-13T20:05:37.995Z,7.25
2023-01-13T20:08:05.515Z,5.63
2023-01-13T20:10:32.528Z,7.15
2023-01-13T20:12:59.838Z,5.85
2023-01-13T20:15:27.695Z,5.85
2023-01-13T20:17:55.913Z,5.15
2023-01-13T20:20:23.009Z,6.25
2023-01-13T20:22:50.559Z,8.38
2023-01-13T20:25:18.958Z,9.57
2023-01-13T20:27:49.452Z,10.23
2023-01-13T20:30:17.636Z,8.75
2023-01-13T20:32:45.157Z,8.13
2023-01-13T20:35:12.431Z,9.27
2023-01-13T20:37:45.027Z,7.22
2023-01-13T20:40:17.955Z,6.65
2023-01-13T20:42:47.749Z,8.07
2023-01-13T20:45:22.776Z,5.72
2023-01-13T20:47:50.799Z,7.80
2023-01-13T20:50:17.863Z,9.77
2023-01-13T20:52:47.958Z,5.57
2023-01-13T20:58:05.137Z,8.23
2023-01-13T21:00:32.392Z,9.25
2023-01-13T21:03:00.193Z,9.10
2023-01-13T21:05:28.394Z,9.63
2023-01-13T21:07:55.676Z,8.77
2023-01-13T21:10:22.678Z,8.50
2023-01-13T21:13:11.717Z,6.75
2023-01-13T21:15:38.803Z,7.30
2023-01-13T21:18:24.900Z,2.83
2023-01-13T21:21:12.417Z,7.88
2023-01-13T21:23:42.149Z,7.72
2023-01-13T21:26:10.580Z,8.30
2023-01-13T21:28:40.584Z,8.02
2023-01-13T21:31:09.472Z,8.27
2023-01-13T21:33:36.842Z,6.95
2023-01-13T21:36:12.711Z,9.10
2023-01-13T21:41:08.601Z,6.15
2023-01-13T21:43:58.444Z,6.95
2023-01-13T21:46:44.307Z,7.35
2023-01-13T21:49:14.556Z,8.55
2023-01-13T21:51:44.891Z,8.13
2023-01-13T21:56:39.307Z,6.85
2023-01-13T21:59:06.744Z,4.22
2023-01-13T22:01:35.051Z,6.93
2023-01-13T22:04:12.686Z,5.60
2023-01-13T22:06:39.956Z,6.15
2023-01-13T22:09:07.493Z,6.10
2023-01-13T22:11:37.673Z,6.07
2023-01-13T22:14:10.159Z,6.15
2023-01-13T22:16:41.694Z,5.88
2023-01-13T22:19:10.738Z,6.30
2023-01-13T22:21:38.397Z,6.28
2023-01-13T22:24:09.134Z,6.82
2023-01-13T22:26:36.306Z,5.90
2023-01-13T22:29:03.748Z,5.43
2023-01-13T22:31:31.797Z,7.00
2023-01-13T22:33:59.308Z,6.10
2023-01-13T22:36:26.609Z,4.80
2023-01-13T22:38:56.000Z,4.32
2023-01-13T22:41:23.610Z,5.45
2023-01-13T22:43:51.458Z,5.22
2023-01-13T22:46:18.716Z,6.43
2023-01-13T22:48:48.363Z,5.97
2023-01-13T22:51:16.990Z,4.72
2023-01-13T22:53:45.729Z,4.88
2023-01-13T22:56:18.606Z,6.75
2023-01-13T22:58:46.053Z,5.15
2023-01-13T23:01:17.690Z,5.57
2023-01-13T23:03:48.021Z,4.80
2023-01-13T23:06:19.415Z,6.40
2023-01-13T23:08:57.613Z,7.15
2023-01-13T23:11:30.192Z,6.22
2023-01-13T23:14:08.348Z,6.95
2023-01-13T23:16:40.980Z,5.35
2023-01-13T23:19:13.151Z,5.38
2023-01-13T23:21:40.167Z,5.22
2023-01-13T23:24:07.977Z,7.10
2023-01-13T23:26:36.179Z,5.30
2023-01-13T23:29:09.127Z,5.28
2023-01-13T23:31:36.312Z,5.80
2023-01-13T23:34:03.893Z,5.07
2023-01-13T23:36:31.362Z,6.60
2023-01-13T23:38:59.699Z,5.20
2023-01-13T23:41:29.144Z,4.35
2023-01-13T23:44:00.997Z,5.40
2023-01-13T23:46:30.269Z,5.63
2023-01-13T23:48:57.805Z,5.95
2023-01-13T23:51:26.493Z,5.40
2023-01-13T23:53:54.499Z,5.55
2023-01-13T23:56:24.660Z,5.72
2023-01-13T23:58:52.664Z,5.78
